• LFSB

    METAR de LFSB (émis le 2021/10/21 16:30 UTC):
    LFSB 211630Z 25006KT CAVOK 14/05 Q1014 NOSIG

    TAF de LFSB (émis le 2021/10/21 14:31 UTC):
    AMD LFSB 211427Z 2114/2212 25012KT 9999 SCT050 BKN060 TEMPO 2114/2116 26015G25KT FEW050TCU TEMPO 2120/2207 31012KT 4000 SHRA FEW030CB PROB40 TEMPO 2203/2206 BKN014
  • LFSX

    METAR de LFSX (émis le 2021/10/21 16:30 UTC):
    LFSX 211630Z AUTO 23011KT CAVOK 14/07 Q1014

    TAF de LFSX (émis le 2021/10/21 15:06 UTC):
    LFSX 211400Z 2115/2215 24014G24KT 9999 BKN040 TEMPO 2121/2124 5000 -SHRA BKN014 SCT025TCU BECMG 2200/2201 31008KT BKN020
  • LFSD

    METAR de LFSD (émis le 2021/10/21 16:30 UTC):
    LFSD 211630Z AUTO 22009KT 180V250 CAVOK 15/07 Q1015

    TAF de LFSD (émis le 2015/06/01 00:11 UTC):
    LFSD 010600Z 0100/0124 CNL
  • LFGJ

    METAR de LFGJ (émis le 2021/10/21 16:30 UTC):
    LFGJ 211630Z AUTO 21009KT CAVOK 13/08 Q1015 NOSIG

    TAF COURT de LFGJ
    (émis le 2021/10/21 15:27 UTC):
    TAF AMD TAF AMD LFGJ 211424Z 2115/2124 22012KT CAVOK TEMPO 2120/2124 4000 SHRA FEW025CB BKN050
  • LFJL

    METAR de LFJL (émis le 2021/10/21 16:30 UTC):
    LFJL 211630Z AUTO 28007KT 8000 -RA BKN036/// OVC046/// ///CB 10/09 Q1011 BECMG BKN035

    TAF de LFJL (émis le 2021/10/21 16:16 UTC):
    AMD LFJL 211611Z 2116/2212 23010KT 9999 BKN035 TEMPO 2116/2117 23018G30KT 4000 SHRA FEW025CB BECMG 2117/2120 31008KT PROB40 TEMPO 2203/2208 4000 BR BKN005
  • LFST

    METAR de LFST (émis le 2021/10/21 16:30 UTC):
    LFST 211630Z AUTO 21012KT CAVOK 14/04 Q1011 BECMG 32008KT

    TAF de LFST (émis le 2021/10/21 12:21 UTC):
    LFST 211100Z 2112/2212 24015G25KT 9999 SCT040 BECMG 2117/2119 32008KT TEMPO 2119/2121 32015G30KT 4000 SHRA FEW030CB